sensor_id;sensor_type;location;lat;lon;timestamp;P1;durP1;ratioP1;P2;durP2;ratioP2
39314;SDS011;28703;44.412;11.918;2024-03-08T00:00:43;37.13;;;25.52;;
39314;SDS011;28703;44.412;11.918;2024-03-08T00:03:08;34.08;;;24.83;;
39314;SDS011;28703;44.412;11.918;2024-03-08T00:05:35;32.67;;;24.45;;
39314;SDS011;28703;44.412;11.918;2024-03-08T00:08:04;32.35;;;24.23;;
39314;SDS011;28703;44.412;11.918;2024-03-08T00:10:31;35.97;;;25.60;;
39314;SDS011;28703;44.412;11.918;2024-03-08T00:12:57;34.10;;;23.70;;
39314;SDS011;28703;44.412;11.918;2024-03-08T00:15:23;30.65;;;24.00;;
39314;SDS011;28703;44.412;11.918;2024-03-08T00:17:48;30.85;;;22.75;;
39314;SDS011;28703;44.412;11.918;2024-03-08T00:20:15;36.05;;;24.35;;
39314;SDS011;28703;44.412;11.918;2024-03-08T00:22:42;30.67;;;23.98;;
39314;SDS011;28703;44.412;11.918;2024-03-08T00:25:09;32.63;;;22.02;;
39314;SDS011;28703;44.412;11.918;2024-03-08T00:27:35;26.63;;;21.77;;
39314;SDS011;28703;44.412;11.918;2024-03-08T00:30:01;27.15;;;22.40;;
39314;SDS011;28703;44.412;11.918;2024-03-08T00:32:27;29.10;;;21.00;;
39314;SDS011;28703;44.412;11.918;2024-03-08T00:34:53;26.98;;;20.33;;
39314;SDS011;28703;44.412;11.918;2024-03-08T00:37:20;24.88;;;19.85;;
39314;SDS011;28703;44.412;11.918;2024-03-08T00:39:47;24.25;;;19.02;;
39314;SDS011;28703;44.412;11.918;2024-03-08T00:42:14;26.60;;;18.80;;
39314;SDS011;28703;44.412;11.918;2024-03-08T00:44:43;22.35;;;18.00;;
39314;SDS011;28703;44.412;11.918;2024-03-08T00:47:09;24.92;;;17.75;;
39314;SDS011;28703;44.412;11.918;2024-03-08T00:49:35;24.23;;;17.90;;
39314;SDS011;28703;44.412;11.918;2024-03-08T00:52:05;21.55;;;17.58;;
39314;SDS011;28703;44.412;11.918;2024-03-08T00:54:34;25.95;;;18.08;;
39314;SDS011;28703;44.412;11.918;2024-03-08T00:57:01;23.17;;;17.63;;
39314;SDS011;28703;44.412;11.918;2024-03-08T00:59:28;22.88;;;16.95;;
39314;SDS011;28703;44.412;11.918;2024-03-08T01:01:54;25.92;;;18.30;;
39314;SDS011;28703;44.412;11.918;2024-03-08T01:04:20;25.52;;;17.35;;
39314;SDS011;28703;44.412;11.918;2024-03-08T01:06:48;22.02;;;17.33;;
39314;SDS011;28703;44.412;11.918;2024-03-08T01:09:13;23.88;;;16.58;;
39314;SDS011;28703;44.412;11.918;2024-03-08T01:11:42;23.15;;;15.93;;
39314;SDS011;28703;44.412;11.918;2024-03-08T01:14:08;20.85;;;14.65;;
39314;SDS011;28703;44.412;11.918;2024-03-08T01:16:34;19.88;;;14.65;;
39314;SDS011;28703;44.412;11.918;2024-03-08T01:19:00;19.33;;;15.30;;
39314;SDS011;28703;44.412;11.918;2024-03-08T01:21:26;17.30;;;14.80;;
39314;SDS011;28703;44.412;11.918;2024-03-08T01:23:52;18.60;;;13.52;;
39314;SDS011;28703;44.412;11.918;2024-03-08T01:26:18;18.17;;;12.60;;
39314;SDS011;28703;44.412;11.918;2024-03-08T01:28:44;15.80;;;12.07;;
39314;SDS011;28703;44.412;11.918;2024-03-08T01:31:09;17.02;;;12.95;;
39314;SDS011;28703;44.412;11.918;2024-03-08T01:33:35;19.83;;;12.90;;
39314;SDS011;28703;44.412;11.918;2024-03-08T01:36:01;15.63;;;12.32;;
39314;SDS011;28703;44.412;11.918;2024-03-08T01:38:27;19.10;;;12.93;;
39314;SDS011;28703;44.412;11.918;2024-03-08T01:40:53;18.17;;;13.70;;
39314;SDS011;28703;44.412;11.918;2024-03-08T01:43:24;21.63;;;13.23;;
39314;SDS011;28703;44.412;11.918;2024-03-08T01:45:53;18.88;;;12.77;;
39314;SDS011;28703;44.412;11.918;2024-03-08T01:48:20;18.38;;;13.32;;
39314;SDS011;28703;44.412;11.918;2024-03-08T01:50:50;18.88;;;13.20;;
39314;SDS011;28703;44.412;11.918;2024-03-08T01:53:17;16.08;;;14.00;;
39314;SDS011;28703;44.412;11.918;2024-03-08T01:55:47;19.90;;;13.20;;
39314;SDS011;28703;44.412;11.918;2024-03-08T01:58:14;16.40;;;13.00;;
39314;SDS011;28703;44.412;11.918;2024-03-08T02:00:41;16.20;;;12.75;;
39314;SDS011;28703;44.412;11.918;2024-03-08T02:03:09;20.15;;;14.45;;
39314;SDS011;28703;44.412;11.918;2024-03-08T02:05:36;21.58;;;14.70;;
39314;SDS011;28703;44.412;11.918;2024-03-08T02:08:03;22.38;;;16.88;;
39314;SDS011;28703;44.412;11.918;2024-03-08T02:10:32;24.95;;;18.45;;
39314;SDS011;28703;44.412;11.918;2024-03-08T02:12:59;22.88;;;17.73;;
39314;SDS011;28703;44.412;11.918;2024-03-08T02:15:49;25.38;;;17.02;;
39314;SDS011;28703;44.412;11.918;2024-03-08T02:18:19;25.75;;;17.08;;
39314;SDS011;28703;44.412;11.918;2024-03-08T02:20:47;25.80;;;18.65;;
39314;SDS011;28703;44.412;11.918;2024-03-08T02:23:23;25.20;;;18.77;;
39314;SDS011;28703;44.412;11.918;2024-03-08T02:25:50;27.13;;;18.73;;
39314;SDS011;28703;44.412;11.918;2024-03-08T02:28:16;26.42;;;18.95;;
39314;SDS011;28703;44.412;11.918;2024-03-08T02:30:45;25.23;;;19.08;;
39314;SDS011;28703;44.412;11.918;2024-03-08T02:33:13;25.67;;;19.83;;
39314;SDS011;28703;44.412;11.918;2024-03-08T02:35:42;32.65;;;20.98;;
39314;SDS011;28703;44.412;11.918;2024-03-08T02:38:15;28.55;;;20.20;;
39314;SDS011;28703;44.412;11.918;2024-03-08T02:40:44;28.15;;;20.67;;
39314;SDS011;28703;44.412;11.918;2024-03-08T02:43:11;25.42;;;20.45;;
39314;SDS011;28703;44.412;11.918;2024-03-08T02:45:38;24.95;;;18.48;;
39314;SDS011;28703;44.412;11.918;2024-03-08T02:48:04;30.60;;;20.25;;
39314;SDS011;28703;44.412;11.918;2024-03-08T02:50:33;27.45;;;19.13;;
39314;SDS011;28703;44.412;11.918;2024-03-08T02:53:02;27.08;;;18.70;;
39314;SDS011;28703;44.412;11.918;2024-03-08T02:55:29;28.90;;;18.70;;
39314;SDS011;28703;44.412;11.918;2024-03-08T02:57:55;24.33;;;18.67;;
39314;SDS011;28703;44.412;11.918;2024-03-08T03:00:21;25.83;;;18.50;;
39314;SDS011;28703;44.412;11.918;2024-03-08T03:02:51;25.58;;;18.90;;
39314;SDS011;28703;44.412;11.918;2024-03-08T03:05:22;22.48;;;17.55;;
39314;SDS011;28703;44.412;11.918;2024-03-08T03:07:49;24.35;;;17.80;;
39314;SDS011;28703;44.412;11.918;2024-03-08T03:10:18;22.60;;;16.70;;
39314;SDS011;28703;44.412;11.918;2024-03-08T03:12:47;25.10;;;17.58;;
39314;SDS011;28703;44.412;11.918;2024-03-08T03:15:17;24.05;;;17.52;;
39314;SDS011;28703;44.412;11.918;2024-03-08T03:17:49;25.45;;;18.10;;
39314;SDS011;28703;44.412;11.918;2024-03-08T03:20:16;20.65;;;16.55;;
39314;SDS011;28703;44.412;11.918;2024-03-08T03:22:48;22.67;;;16.95;;
39314;SDS011;28703;44.412;11.918;2024-03-08T03:25:17;27.70;;;17.35;;
39314;SDS011;28703;44.412;11.918;2024-03-08T03:27:58;24.75;;;17.50;;
39314;SDS011;28703;44.412;11.918;2024-03-08T03:30:24;23.67;;;17.30;;
39314;SDS011;28703;44.412;11.918;2024-03-08T03:32:58;26.23;;;17.20;;
39314;SDS011;28703;44.412;11.918;2024-03-08T03:35:31;20.92;;;16.48;;
39314;SDS011;28703;44.412;11.918;2024-03-08T03:37:57;23.80;;;17.50;;
39314;SDS011;28703;44.412;11.918;2024-03-08T03:40:30;22.95;;;16.75;;
39314;SDS011;28703;44.412;11.918;2024-03-08T03:42:56;20.90;;;16.70;;
39314;SDS011;28703;44.412;11.918;2024-03-08T03:45:22;25.30;;;17.05;;
39314;SDS011;28703;44.412;11.918;2024-03-08T03:47:48;24.88;;;17.92;;
39314;SDS011;28703;44.412;11.918;2024-03-08T03:50:14;28.60;;;20.90;;
39314;SDS011;28703;44.412;11.918;2024-03-08T03:52:40;24.52;;;19.27;;
39314;SDS011;28703;44.412;11.918;2024-03-08T03:55:07;26.65;;;18.50;;
39314;SDS011;28703;44.412;11.918;2024-03-08T03:57:33;22.98;;;18.52;;
39314;SDS011;28703;44.412;11.918;2024-03-08T03:59:59;26.08;;;18.75;;
39314;SDS011;28703;44.412;11.918;2024-03-08T04:02:25;28.25;;;18.73;;
39314;SDS011;28703;44.412;11.918;2024-03-08T04:04:54;23.65;;;18.92;;
39314;SDS011;28703;44.412;11.918;2024-03-08T04:07:20;27.02;;;18.45;;
39314;SDS011;28703;44.412;11.918;2024-03-08T04:09:46;21.98;;;17.20;;
39314;SDS011;28703;44.412;11.918;2024-03-08T04:12:12;27.38;;;17.05;;
39314;SDS011;28703;44.412;11.918;2024-03-08T04:14:41;21.30;;;17.35;;
39314;SDS011;28703;44.412;11.918;2024-03-08T04:17:07;28.40;;;19.52;;
39314;SDS011;28703;44.412;11.918;2024-03-08T04:19:37;24.52;;;17.10;;
39314;SDS011;28703;44.412;11.918;2024-03-08T04:22:05;23.50;;;17.42;;
39314;SDS011;28703;44.412;11.918;2024-03-08T04:24:32;23.98;;;17.85;;
39314;SDS011;28703;44.412;11.918;2024-03-08T04:26:58;25.10;;;17.42;;
39314;SDS011;28703;44.412;11.918;2024-03-08T04:29:24;23.13;;;17.52;;
39314;SDS011;28703;44.412;11.918;2024-03-08T04:31:51;25.50;;;16.85;;
39314;SDS011;28703;44.412;11.918;2024-03-08T04:34:20;20.70;;;16.55;;
39314;SDS011;28703;44.412;11.918;2024-03-08T04:36:47;22.52;;;16.95;;
39314;SDS011;28703;44.412;11.918;2024-03-08T04:39:13;23.40;;;16.52;;
39314;SDS011;28703;44.412;11.918;2024-03-08T04:41:40;24.92;;;16.30;;
39314;SDS011;28703;44.412;11.918;2024-03-08T04:44:10;23.45;;;16.52;;
39314;SDS011;28703;44.412;11.918;2024-03-08T04:46:38;22.80;;;16.13;;
39314;SDS011;28703;44.412;11.918;2024-03-08T04:49:03;19.90;;;16.08;;
39314;SDS011;28703;44.412;11.918;2024-03-08T04:51:29;21.67;;;17.13;;
39314;SDS011;28703;44.412;11.918;2024-03-08T04:53:55;26.05;;;16.50;;
39314;SDS011;28703;44.412;11.918;2024-03-08T04:56:22;27.88;;;15.45;;
39314;SDS011;28703;44.412;11.918;2024-03-08T04:58:48;21.17;;;15.77;;
39314;SDS011;28703;44.412;11.918;2024-03-08T05:01:14;20.27;;;14.60;;
39314;SDS011;28703;44.412;11.918;2024-03-08T05:03:40;20.30;;;14.82;;
39314;SDS011;28703;44.412;11.918;2024-03-08T05:06:06;25.25;;;15.25;;
39314;SDS011;28703;44.412;11.918;2024-03-08T05:08:32;23.40;;;15.88;;
39314;SDS011;28703;44.412;11.918;2024-03-08T05:10:58;21.80;;;14.90;;
39314;SDS011;28703;44.412;11.918;2024-03-08T05:13:25;20.25;;;14.93;;
39314;SDS011;28703;44.412;11.918;2024-03-08T05:15:52;19.65;;;15.25;;
39314;SDS011;28703;44.412;11.918;2024-03-08T05:18:18;20.20;;;14.93;;
39314;SDS011;28703;44.412;11.918;2024-03-08T05:20:43;23.17;;;15.60;;
39314;SDS011;28703;44.412;11.918;2024-03-08T05:23:10;25.45;;;15.45;;
39314;SDS011;28703;44.412;11.918;2024-03-08T05:25:35;19.13;;;14.80;;
39314;SDS011;28703;44.412;11.918;2024-03-08T05:28:01;21.58;;;16.05;;
39314;SDS011;28703;44.412;11.918;2024-03-08T05:30:29;20.52;;;15.25;;
39314;SDS011;28703;44.412;11.918;2024-03-08T05:32:55;20.83;;;14.80;;
39314;SDS011;28703;44.412;11.918;2024-03-08T05:35:22;21.55;;;14.82;;
39314;SDS011;28703;44.412;11.918;2024-03-08T05:37:47;19.90;;;14.88;;
39314;SDS011;28703;44.412;11.918;2024-03-08T05:40:13;23.98;;;15.10;;
39314;SDS011;28703;44.412;11.918;2024-03-08T05:42:40;25.65;;;14.88;;
39314;SDS011;28703;44.412;11.918;2024-03-08T05:45:06;22.20;;;15.02;;
39314;SDS011;28703;44.412;11.918;2024-03-08T05:47:32;20.67;;;13.70;;
39314;SDS011;28703;44.412;11.918;2024-03-08T05:49:58;17.05;;;12.30;;
39314;SDS011;28703;44.412;11.918;2024-03-08T05:52:24;16.73;;;12.57;;
39314;SDS011;28703;44.412;11.918;2024-03-08T05:54:51;15.75;;;12.02;;
39314;SDS011;28703;44.412;11.918;2024-03-08T05:57:17;16.77;;;12.75;;
39314;SDS011;28703;44.412;11.918;2024-03-08T05:59:42;23.00;;;13.85;;
39314;SDS011;28703;44.412;11.918;2024-03-08T06:02:08;18.65;;;13.25;;
39314;SDS011;28703;44.412;11.918;2024-03-08T06:04:34;20.42;;;14.05;;
39314;SDS011;28703;44.412;11.918;2024-03-08T06:07:00;21.17;;;13.52;;
39314;SDS011;28703;44.412;11.918;2024-03-08T06:09:28;24.33;;;14.15;;
39314;SDS011;28703;44.412;11.918;2024-03-08T06:11:54;16.55;;;13.45;;
39314;SDS011;28703;44.412;11.918;2024-03-08T06:14:20;17.80;;;12.93;;
39314;SDS011;28703;44.412;11.918;2024-03-08T06:16:46;16.92;;;13.40;;
39314;SDS011;28703;44.412;11.918;2024-03-08T06:19:15;19.25;;;13.23;;
39314;SDS011;28703;44.412;11.918;2024-03-08T06:21:41;18.98;;;13.77;;
39314;SDS011;28703;44.412;11.918;2024-03-08T06:24:06;20.45;;;14.75;;
39314;SDS011;28703;44.412;11.918;2024-03-08T06:26:32;23.20;;;14.23;;
39314;SDS011;28703;44.412;11.918;2024-03-08T06:28:59;18.38;;;14.60;;
39314;SDS011;28703;44.412;11.918;2024-03-08T06:31:25;20.55;;;14.98;;
39314;SDS011;28703;44.412;11.918;2024-03-08T06:33:51;23.00;;;14.52;;
39314;SDS011;28703;44.412;11.918;2024-03-08T06:36:19;19.40;;;14.73;;
39314;SDS011;28703;44.412;11.918;2024-03-08T06:38:47;20.75;;;14.30;;
39314;SDS011;28703;44.412;11.918;2024-03-08T06:41:13;23.83;;;15.80;;
39314;SDS011;28703;44.412;11.918;2024-03-08T06:43:42;23.90;;;15.18;;
39314;SDS011;28703;44.412;11.918;2024-03-08T06:46:09;25.77;;;16.42;;
39314;SDS011;28703;44.412;11.918;2024-03-08T06:48:37;34.50;;;19.40;;
39314;SDS011;28703;44.412;11.918;2024-03-08T06:51:04;28.55;;;21.35;;
39314;SDS011;28703;44.412;11.918;2024-03-08T06:53:31;34.60;;;23.42;;
39314;SDS011;28703;44.412;11.918;2024-03-08T06:55:57;35.05;;;23.98;;
39314;SDS011;28703;44.412;11.918;2024-03-08T06:58:24;38.22;;;23.77;;
39314;SDS011;28703;44.412;11.918;2024-03-08T07:00:50;32.47;;;24.40;;
39314;SDS011;28703;44.412;11.918;2024-03-08T07:03:18;33.00;;;23.65;;
39314;SDS011;28703;44.412;11.918;2024-03-08T07:05:44;34.20;;;23.75;;
39314;SDS011;28703;44.412;11.918;2024-03-08T07:08:10;34.10;;;23.30;;
39314;SDS011;28703;44.412;11.918;2024-03-08T07:10:39;34.97;;;23.55;;
39314;SDS011;28703;44.412;11.918;2024-03-08T07:13:10;32.47;;;23.05;;
39314;SDS011;28703;44.412;11.918;2024-03-08T07:15:36;34.38;;;23.38;;
39314;SDS011;28703;44.412;11.918;2024-03-08T07:18:02;35.20;;;23.75;;
39314;SDS011;28703;44.412;11.918;2024-03-08T07:20:28;32.30;;;24.10;;
39314;SDS011;28703;44.412;11.918;2024-03-08T07:22:54;33.58;;;23.20;;
39314;SDS011;28703;44.412;11.918;2024-03-08T07:25:20;32.60;;;23.13;;
39314;SDS011;28703;44.412;11.918;2024-03-08T07:27:46;34.28;;;23.52;;
39314;SDS011;28703;44.412;11.918;2024-03-08T07:30:13;33.33;;;24.35;;
39314;SDS011;28703;44.412;11.918;2024-03-08T07:32:59;39.42;;;22.73;;
39314;SDS011;28703;44.412;11.918;2024-03-08T07:35:27;31.60;;;22.65;;
39314;SDS011;28703;44.412;11.918;2024-03-08T07:37:54;33.75;;;22.92;;
39314;SDS011;28703;44.412;11.918;2024-03-08T07:40:23;34.13;;;24.15;;
39314;SDS011;28703;44.412;11.918;2024-03-08T07:42:49;32.65;;;22.52;;
39314;SDS011;28703;44.412;11.918;2024-03-08T07:45:16;31.30;;;21.85;;
39314;SDS011;28703;44.412;11.918;2024-03-08T07:47:42;33.72;;;24.17;;
39314;SDS011;28703;44.412;11.918;2024-03-08T07:50:08;31.48;;;22.98;;
39314;SDS011;28703;44.412;11.918;2024-03-08T07:52:34;31.23;;;23.63;;
39314;SDS011;28703;44.412;11.918;2024-03-08T07:55:01;30.65;;;22.60;;
39314;SDS011;28703;44.412;11.918;2024-03-08T07:57:29;30.58;;;22.52;;
39314;SDS011;28703;44.412;11.918;2024-03-08T07:59:55;33.38;;;23.08;;
39314;SDS011;28703;44.412;11.918;2024-03-08T08:02:21;34.80;;;23.70;;
39314;SDS011;28703;44.412;11.918;2024-03-08T08:04:47;33.60;;;22.55;;
39314;SDS011;28703;44.412;11.918;2024-03-08T08:07:13;30.98;;;23.05;;
39314;SDS011;28703;44.412;11.918;2024-03-08T08:09:40;30.77;;;22.58;;
39314;SDS011;28703;44.412;11.918;2024-03-08T08:12:10;37.95;;;22.73;;
39314;SDS011;28703;44.412;11.918;2024-03-08T08:14:37;32.05;;;22.05;;
39314;SDS011;28703;44.412;11.918;2024-03-08T08:17:04;34.53;;;22.98;;
39314;SDS011;28703;44.412;11.918;2024-03-08T08:19:30;27.90;;;21.27;;
39314;SDS011;28703;44.412;11.918;2024-03-08T08:21:57;29.00;;;21.25;;
39314;SDS011;28703;44.412;11.918;2024-03-08T08:24:23;31.52;;;22.33;;
39314;SDS011;28703;44.412;11.918;2024-03-08T08:26:49;32.97;;;22.90;;
39314;SDS011;28703;44.412;11.918;2024-03-08T08:29:15;30.42;;;22.50;;
39314;SDS011;28703;44.412;11.918;2024-03-08T08:31:41;31.00;;;22.00;;
39314;SDS011;28703;44.412;11.918;2024-03-08T08:34:09;36.60;;;21.88;;
39314;SDS011;28703;44.412;11.918;2024-03-08T08:36:37;29.95;;;21.95;;
39314;SDS011;28703;44.412;11.918;2024-03-08T08:39:04;28.00;;;22.15;;
39314;SDS011;28703;44.412;11.918;2024-03-08T08:41:36;35.60;;;22.10;;
39314;SDS011;28703;44.412;11.918;2024-03-08T08:44:02;30.77;;;21.05;;
39314;SDS011;28703;44.412;11.918;2024-03-08T08:46:27;27.77;;;19.60;;
39314;SDS011;28703;44.412;11.918;2024-03-08T08:48:53;25.80;;;20.33;;
39314;SDS011;28703;44.412;11.918;2024-03-08T08:51:19;26.73;;;18.98;;
39314;SDS011;28703;44.412;11.918;2024-03-08T08:53:45;24.38;;;18.42;;
39314;SDS011;28703;44.412;11.918;2024-03-08T08:56:13;24.80;;;18.35;;
39314;SDS011;28703;44.412;11.918;2024-03-08T08:58:39;30.05;;;19.98;;
39314;SDS011;28703;44.412;11.918;2024-03-08T09:01:08;28.75;;;18.80;;
39314;SDS011;28703;44.412;11.918;2024-03-08T09:03:35;34.08;;;19.77;;
39314;SDS011;28703;44.412;11.918;2024-03-08T09:06:03;31.00;;;19.92;;
39314;SDS011;28703;44.412;11.918;2024-03-08T09:08:29;28.02;;;19.05;;
39314;SDS011;28703;44.412;11.918;2024-03-08T09:10:55;21.05;;;17.60;;
39314;SDS011;28703;44.412;11.918;2024-03-08T09:13:21;23.73;;;18.15;;
39314;SDS011;28703;44.412;11.918;2024-03-08T09:15:48;24.98;;;19.25;;
39314;SDS011;28703;44.412;11.918;2024-03-08T09:18:13;25.60;;;18.13;;
39314;SDS011;28703;44.412;11.918;2024-03-08T09:20:39;24.55;;;17.60;;
39314;SDS011;28703;44.412;11.918;2024-03-08T09:23:06;25.30;;;18.15;;
39314;SDS011;28703;44.412;11.918;2024-03-08T09:25:33;22.95;;;17.73;;
39314;SDS011;28703;44.412;11.918;2024-03-08T09:27:59;20.10;;;15.30;;
39314;SDS011;28703;44.412;11.918;2024-03-08T09:30:25;20.08;;;15.02;;
39314;SDS011;28703;44.412;11.918;2024-03-08T09:32:51;19.65;;;15.30;;
39314;SDS011;28703;44.412;11.918;2024-03-08T09:35:17;17.60;;;15.52;;
39314;SDS011;28703;44.412;11.918;2024-03-08T09:37:42;21.25;;;14.02;;
39314;SDS011;28703;44.412;11.918;2024-03-08T09:40:08;22.23;;;15.10;;
39314;SDS011;28703;44.412;11.918;2024-03-08T09:42:35;20.48;;;14.55;;
39314;SDS011;28703;44.412;11.918;2024-03-08T09:45:10;33.60;;;14.73;;
39314;SDS011;28703;44.412;11.918;2024-03-08T09:47:38;15.95;;;14.20;;
39314;SDS011;28703;44.412;11.918;2024-03-08T09:50:08;18.38;;;14.25;;
39314;SDS011;28703;44.412;11.918;2024-03-08T09:52:40;15.73;;;12.98;;
39314;SDS011;28703;44.412;11.918;2024-03-08T09:55:11;18.73;;;14.18;;
39314;SDS011;28703;44.412;11.918;2024-03-08T09:57:37;21.55;;;14.23;;
39314;SDS011;28703;44.412;11.918;2024-03-08T10:00:05;22.80;;;12.90;;
39314;SDS011;28703;44.412;11.918;2024-03-08T10:02:46;22.05;;;13.50;;
39314;SDS011;28703;44.412;11.918;2024-03-08T10:05:13;19.55;;;13.82;;
39314;SDS011;28703;44.412;11.918;2024-03-08T10:07:39;16.33;;;14.05;;
39314;SDS011;28703;44.412;11.918;2024-03-08T10:10:05;18.70;;;13.57;;
39314;SDS011;28703;44.412;11.918;2024-03-08T10:12:34;20.33;;;13.70;;
39314;SDS011;28703;44.412;11.918;2024-03-08T10:15:00;21.30;;;14.20;;
39314;SDS011;28703;44.412;11.918;2024-03-08T10:17:26;19.80;;;14.10;;
39314;SDS011;28703;44.412;11.918;2024-03-08T10:19:57;22.60;;;13.88;;
39314;SDS011;28703;44.412;11.918;2024-03-08T10:22:25;23.60;;;13.57;;
39314;SDS011;28703;44.412;11.918;2024-03-08T10:24:51;16.70;;;13.45;;
39314;SDS011;28703;44.412;11.918;2024-03-08T10:27:17;21.15;;;14.07;;
39314;SDS011;28703;44.412;11.918;2024-03-08T10:29:46;16.88;;;13.48;;
39314;SDS011;28703;44.412;11.918;2024-03-08T10:32:16;22.55;;;13.93;;
39314;SDS011;28703;44.412;11.918;2024-03-08T10:34:42;14.98;;;12.93;;
39314;SDS011;28703;44.412;11.918;2024-03-08T10:37:12;15.95;;;12.32;;
39314;SDS011;28703;44.412;11.918;2024-03-08T10:39:43;19.73;;;13.15;;
39314;SDS011;28703;44.412;11.918;2024-03-08T10:42:19;15.95;;;12.50;;
39314;SDS011;28703;44.412;11.918;2024-03-08T10:44:57;23.05;;;12.15;;
39314;SDS011;28703;44.412;11.918;2024-03-08T10:47:38;17.58;;;11.52;;
39314;SDS011;28703;44.412;11.918;2024-03-08T10:52:50;18.85;;;12.20;;
39314;SDS011;28703;44.412;11.918;2024-03-08T10:55:18;13.77;;;10.18;;
39314;SDS011;28703;44.412;11.918;2024-03-08T10:57:45;16.50;;;11.18;;
39314;SDS011;28703;44.412;11.918;2024-03-08T11:00:16;17.77;;;11.35;;
39314;SDS011;28703;44.412;11.918;2024-03-08T11:02:44;12.90;;;9.20;;
39314;SDS011;28703;44.412;11.918;2024-03-08T11:05:10;13.63;;;9.52;;
39314;SDS011;28703;44.412;11.918;2024-03-08T11:07:44;13.07;;;10.07;;
39314;SDS011;28703;44.412;11.918;2024-03-08T11:10:19;12.23;;;9.35;;
39314;SDS011;28703;44.412;11.918;2024-03-08T11:12:45;14.43;;;9.38;;
39314;SDS011;28703;44.412;11.918;2024-03-08T11:15:13;9.98;;;8.52;;
39314;SDS011;28703;44.412;11.918;2024-03-08T11:20:11;14.35;;;8.13;;
39314;SDS011;28703;44.412;11.918;2024-03-08T11:22:54;13.50;;;9.02;;
39314;SDS011;28703;44.412;11.918;2024-03-08T11:25:39;12.77;;;8.27;;
39314;SDS011;28703;44.412;11.918;2024-03-08T11:30:46;13.13;;;7.45;;
39314;SDS011;28703;44.412;11.918;2024-03-08T11:33:34;10.18;;;7.28;;
39314;SDS011;28703;44.412;11.918;2024-03-08T11:38:42;14.35;;;8.35;;
39314;SDS011;28703;44.412;11.918;2024-03-08T11:41:09;13.95;;;7.88;;
39314;SDS011;28703;44.412;11.918;2024-03-08T11:43:42;13.20;;;9.35;;
39314;SDS011;28703;44.412;11.918;2024-03-08T11:46:08;11.27;;;6.95;;
39314;SDS011;28703;44.412;11.918;2024-03-08T11:48:34;10.43;;;6.93;;
39314;SDS011;28703;44.412;11.918;2024-03-08T11:51:03;12.15;;;8.27;;
39314;SDS011;28703;44.412;11.918;2024-03-08T11:53:30;10.65;;;7.20;;
39314;SDS011;28703;44.412;11.918;2024-03-08T11:56:09;8.32;;;5.93;;
39314;SDS011;28703;44.412;11.918;2024-03-08T11:58:36;7.75;;;6.65;;
39314;SDS011;28703;44.412;11.918;2024-03-08T12:01:03;8.57;;;6.30;;
39314;SDS011;28703;44.412;11.918;2024-03-08T12:03:30;9.85;;;6.07;;
39314;SDS011;28703;44.412;11.918;2024-03-08T12:05:59;7.55;;;5.93;;
39314;SDS011;28703;44.412;11.918;2024-03-08T12:08:26;11.25;;;6.95;;
39314;SDS011;28703;44.412;11.918;2024-03-08T12:10:53;10.27;;;7.03;;
39314;SDS011;28703;44.412;11.918;2024-03-08T12:13:28;8.30;;;6.75;;
39314;SDS011;28703;44.412;11.918;2024-03-08T12:16:00;8.70;;;6.20;;
39314;SDS011;28703;44.412;11.918;2024-03-08T12:18:32;9.20;;;6.60;;
39314;SDS011;28703;44.412;11.918;2024-03-08T12:21:12;14.52;;;6.75;;
39314;SDS011;28703;44.412;11.918;2024-03-08T12:23:45;6.28;;;5.00;;
39314;SDS011;28703;44.412;11.918;2024-03-08T12:26:23;6.55;;;5.00;;
39314;SDS011;28703;44.412;11.918;2024-03-08T12:28:51;10.63;;;5.72;;
39314;SDS011;28703;44.412;11.918;2024-03-08T12:31:17;10.05;;;6.53;;
39314;SDS011;28703;44.412;11.918;2024-03-08T12:33:52;9.45;;;7.32;;
39314;SDS011;28703;44.412;11.918;2024-03-08T12:36:20;9.63;;;7.18;;
39314;SDS011;28703;44.412;11.918;2024-03-08T12:38:46;11.52;;;7.47;;
39314;SDS011;28703;44.412;11.918;2024-03-08T12:41:19;9.70;;;7.55;;
39314;SDS011;28703;44.412;11.918;2024-03-08T12:43:45;11.20;;;7.05;;
39314;SDS011;28703;44.412;11.918;2024-03-08T12:46:15;13.20;;;7.20;;
39314;SDS011;28703;44.412;11.918;2024-03-08T12:48:41;12.75;;;8.35;;
39314;SDS011;28703;44.412;11.918;2024-03-08T12:51:12;14.48;;;8.00;;
39314;SDS011;28703;44.412;11.918;2024-03-08T12:53:43;11.63;;;7.88;;
39314;SDS011;28703;44.412;11.918;2024-03-08T12:56:09;9.80;;;8.27;;
39314;SDS011;28703;44.412;11.918;2024-03-08T12:58:36;11.80;;;7.72;;
39314;SDS011;28703;44.412;11.918;2024-03-08T13:01:03;10.68;;;7.50;;
39314;SDS011;28703;44.412;11.918;2024-03-08T13:03:35;8.73;;;6.50;;
39314;SDS011;28703;44.412;11.918;2024-03-08T13:06:04;10.60;;;7.97;;
39314;SDS011;28703;44.412;11.918;2024-03-08T13:08:36;9.57;;;7.25;;
39314;SDS011;28703;44.412;11.918;2024-03-08T13:11:09;9.75;;;7.43;;
39314;SDS011;28703;44.412;11.918;2024-03-08T13:13:39;9.40;;;6.70;;
39314;SDS011;28703;44.412;11.918;2024-03-08T13:16:08;9.23;;;7.45;;
39314;SDS011;28703;44.412;11.918;2024-03-08T13:18:35;9.55;;;7.38;;
39314;SDS011;28703;44.412;11.918;2024-03-08T13:21:01;11.35;;;7.47;;
39314;SDS011;28703;44.412;11.918;2024-03-08T13:23:31;11.35;;;7.25;;
39314;SDS011;28703;44.412;11.918;2024-03-08T13:25:57;10.55;;;6.75;;
39314;SDS011;28703;44.412;11.918;2024-03-08T13:28:22;10.60;;;7.80;;
39314;SDS011;28703;44.412;11.918;2024-03-08T13:30:53;9.38;;;7.35;;
39314;SDS011;28703;44.412;11.918;2024-03-08T13:33:19;12.98;;;7.35;;
39314;SDS011;28703;44.412;11.918;2024-03-08T13:35:45;10.25;;;7.28;;
39314;SDS011;28703;44.412;11.918;2024-03-08T13:38:11;8.25;;;5.85;;
39314;SDS011;28703;44.412;11.918;2024-03-08T13:40:38;7.43;;;6.30;;
39314;SDS011;28703;44.412;11.918;2024-03-08T13:43:05;7.60;;;6.10;;
39314;SDS011;28703;44.412;11.918;2024-03-08T13:45:33;9.00;;;6.38;;
39314;SDS011;28703;44.412;11.918;2024-03-08T13:48:03;8.38;;;6.90;;
39314;SDS011;28703;44.412;11.918;2024-03-08T13:50:30;10.50;;;6.75;;
39314;SDS011;28703;44.412;11.918;2024-03-08T13:52:56;8.98;;;6.43;;
39314;SDS011;28703;44.412;11.918;2024-03-08T13:55:22;9.27;;;6.53;;
39314;SDS011;28703;44.412;11.918;2024-03-08T13:57:48;8.73;;;6.20;;
39314;SDS011;28703;44.412;11.918;2024-03-08T14:00:16;7.45;;;6.22;;
39314;SDS011;28703;44.412;11.918;2024-03-08T14:02:42;9.57;;;6.50;;
39314;SDS011;28703;44.412;11.918;2024-03-08T14:05:09;7.60;;;6.53;;
39314;SDS011;28703;44.412;11.918;2024-03-08T14:07:36;8.73;;;6.47;;
39314;SDS011;28703;44.412;11.918;2024-03-08T14:10:02;7.65;;;6.07;;
39314;SDS011;28703;44.412;11.918;2024-03-08T14:12:28;9.23;;;5.80;;
39314;SDS011;28703;44.412;11.918;2024-03-08T14:14:55;8.75;;;6.05;;
39314;SDS011;28703;44.412;11.918;2024-03-08T14:17:27;15.35;;;6.40;;
39314;SDS011;28703;44.412;11.918;2024-03-08T14:19:56;7.95;;;5.85;;
39314;SDS011;28703;44.412;11.918;2024-03-08T14:22:22;7.43;;;5.95;;
39314;SDS011;28703;44.412;11.918;2024-03-08T14:24:48;6.20;;;5.20;;
39314;SDS011;28703;44.412;11.918;2024-03-08T14:27:15;8.77;;;5.80;;